Time;durP1;ratioP1;P1;durP2;ratioP2;P2;SDS_P1;SDS_P2;PMS_P1;PMS_P2;Temp;Humidity;BMP_temperature;BMP_pressure;BME280_temperature;BME280_humidity;BME280_pressure;Samples;Min_cycle;Max_cycle;Signal;HPM_P1;HPM_P2
2022/07/21 00:01:53;;;;;;;18.35;13.13;;;;;;;16.26;100.00;101613.28;10397218;28;20049;-74
2022/07/21 00:06:53;;;;;;;20.45;15.13;;;;;;;16.25;100.00;101614.13;10330076;28;20050;-74
2022/07/21 00:11:54;;;;;;;23.95;17.00;;;;;;;16.15;100.00;101614.63;10354527;28;20060;-74
2022/07/21 00:16:55;;;;;;;18.33;15.68;;;;;;;16.08;100.00;101621.41;10386991;28;20037;-74
2022/07/21 00:21:55;;;;;;;22.10;16.75;;;;;;;16.11;100.00;101618.00;10393569;28;20041;-74
2022/07/21 00:26:56;;;;;;;23.73;18.75;;;;;;;16.13;100.00;101611.91;10345860;28;20065;-73
2022/07/21 00:31:56;;;;;;;24.92;17.85;;;;;;;16.11;100.00;101610.97;10369346;28;20467;-74
2022/07/21 00:36:57;;;;;;;19.45;15.88;;;;;;;16.18;100.00;101597.97;10385993;28;20107;-75
2022/07/21 00:41:57;;;;;;;23.77;17.35;;;;;;;16.15;100.00;101602.31;10350868;28;20048;-74
2022/07/21 00:46:58;;;;;;;23.17;17.77;;;;;;;16.18;100.00;101608.53;10402766;28;20167;-75
2022/07/21 00:51:58;;;;;;;22.73;17.75;;;;;;;16.16;100.00;101613.78;10377953;28;20042;-76
2022/07/21 00:56:59;;;;;;;20.60;16.33;;;;;;;16.16;100.00;101605.88;10361724;28;20482;-74
2022/07/21 01:01:59;;;;;;;21.90;16.98;;;;;;;16.12;100.00;101596.91;10335709;28;20457;-74
2022/07/21 01:07:00;;;;;;;20.90;16.38;;;;;;;16.10;100.00;101595.97;10327756;28;20036;-74
2022/07/21 01:12:01;;;;;;;22.95;16.60;;;;;;;16.13;100.00;101606.63;10333637;28;20044;-74
2022/07/21 01:17:02;;;;;;;25.02;19.17;;;;;;;16.08;100.00;101595.00;10399786;28;20103;-74
2022/07/21 01:22:02;;;;;;;22.08;17.60;;;;;;;16.11;100.00;101592.47;10376511;28;20513;-74
2022/07/21 01:27:03;;;;;;;25.50;18.35;;;;;;;16.07;100.00;101598.50;10344090;28;20125;-74
2022/07/21 01:32:04;;;;;;;25.00;17.67;;;;;;;16.09;100.00;101599.44;10365626;28;20057;-74
2022/07/21 01:37:04;;;;;;;25.25;18.05;;;;;;;16.06;100.00;101595.81;10400712;28;20044;-74
2022/07/21 01:42:07;;;;;;;25.38;19.17;;;;;;;16.07;100.00;101589.69;10364742;28;20037;-75
2022/07/21 01:47:08;;;;;;;23.92;17.13;;;;;;;16.00;100.00;101593.81;10366570;28;20132;-74
2022/07/21 01:52:17;;;;;;;25.08;20.27;;;;;;;16.13;100.00;101593.44;10364375;28;20033;-75
2022/07/21 01:57:22;;;;;;;27.80;19.48;;;;;;;16.20;100.00;101596.28;10400622;28;20044;-74
2022/07/21 02:02:27;;;;;;;25.65;18.58;;;;;;;16.23;100.00;101597.31;10395299;28;20466;-74
2022/07/21 02:07:28;;;;;;;26.38;18.75;;;;;;;16.31;100.00;101596.69;10342145;28;20068;-74
2022/07/21 02:12:28;;;;;;;27.95;22.25;;;;;;;16.31;100.00;101600.22;10343223;28;20103;-74
2022/07/21 02:17:29;;;;;;;27.73;20.80;;;;;;;16.33;100.00;101602.94;10359536;28;20038;-74
2022/07/21 02:22:31;;;;;;;28.00;20.77;;;;;;;16.33;100.00;101595.88;10376505;28;20029;-74
2022/07/21 02:27:33;;;;;;;27.17;19.52;;;;;;;16.34;100.00;101588.88;10390710;28;20038;-74
2022/07/21 02:32:34;;;;;;;29.52;20.67;;;;;;;16.36;100.00;101580.16;10391772;28;20038;-74
2022/07/21 02:37:34;;;;;;;26.08;19.52;;;;;;;16.37;100.00;101589.00;10364862;28;20034;-74
2022/07/21 02:42:37;;;;;;;26.10;20.20;;;;;;;16.41;100.00;101589.13;10376353;28;20387;-73
2022/07/21 02:47:59;;;;;;;28.95;20.98;;;;;;;16.46;100.00;101591.03;10333737;28;20096;-74
2022/07/21 02:53:04;;;;;;;27.23;21.02;;;;;;;16.48;100.00;101584.06;10382724;28;20042;-74
2022/07/21 02:58:17;;;;;;;25.90;20.65;;;;;;;16.48;100.00;101584.97;10390201;28;20050;-73
2022/07/21 03:03:30;;;;;;;28.63;22.77;;;;;;;16.49;100.00;101581.50;10387883;28;20029;-74
2022/07/21 03:08:30;;;;;;;29.50;23.02;;;;;;;16.47;100.00;101583.19;10373368;28;20046;-74
2022/07/21 03:13:32;;;;;;;26.20;20.73;;;;;;;16.49;100.00;101589.41;10368920;28;20030;-74
2022/07/21 03:18:41;;;;;;;30.52;20.42;;;;;;;16.52;100.00;101596.53;10366311;28;20490;-74
2022/07/21 03:23:45;;;;;;;29.02;21.08;;;;;;;16.56;100.00;101591.44;10365106;28;20401;-73
2022/07/21 03:28:48;;;;;;;29.67;21.38;;;;;;;16.58;100.00;101587.09;10365690;28;20189;-74
2022/07/21 03:34:00;;;;;;;26.55;20.10;;;;;;;16.62;100.00;101576.63;10359667;28;20042;-73
2022/07/21 03:39:02;;;;;;;26.50;18.95;;;;;;;16.66;100.00;101571.47;10387214;28;20128;-74
2022/07/21 03:44:11;;;;;;;26.40;17.48;;;;;;;16.67;100.00;101575.03;10402660;28;20060;-75
2022/07/21 03:49:22;;;;;;;24.10;18.20;;;;;;;16.68;100.00;101583.00;10355991;28;20048;-75
2022/07/21 03:54:26;;;;;;;22.98;17.05;;;;;;;16.69;100.00;101583.91;10388157;28;20112;-75
2022/07/21 03:59:29;;;;;;;20.25;18.13;;;;;;;16.64;100.00;101591.69;10401664;28;20042;-74
2022/07/21 04:04:32;;;;;;;22.27;18.58;;;;;;;16.65;100.00;101576.72;10381846;28;20485;-75
2022/07/21 04:09:36;;;;;;;24.23;18.15;;;;;;;16.57;100.00;101572.09;10371559;28;20089;-75
2022/07/21 04:14:41;;;;;;;24.67;19.65;;;;;;;16.43;100.00;101566.31;10355087;28;20125;-74
2022/07/21 04:19:42;;;;;;;28.48;19.67;;;;;;;16.33;100.00;101569.47;10379272;28;20136;-75
2022/07/21 04:24:42;;;;;;;26.90;21.35;;;;;;;16.33;100.00;101569.47;10348610;28;20079;-76
2022/07/21 04:29:43;;;;;;;33.30;22.10;;;;;;;16.36;100.00;101559.00;10379567;28;20048;-76
2022/07/21 04:34:43;;;;;;;30.17;22.33;;;;;;;16.34;100.00;101558.06;10357875;28;20041;-77
2022/07/21 04:39:44;;;;;;;26.13;20.35;;;;;;;16.33;100.00;101564.19;10368725;28;20034;-76
2022/07/21 04:44:44;;;;;;;27.67;21.65;;;;;;;16.26;100.00;101559.53;10347608;28;20434;-76
2022/07/21 04:49:45;;;;;;;26.20;19.83;;;;;;;16.33;100.00;101566.84;10380658;28;20038;-75
2022/07/21 04:54:45;;;;;;;24.55;20.52;;;;;;;16.43;100.00;101570.72;10398083;28;20037;-74
2022/07/21 04:59:46;;;;;;;23.98;19.88;;;;;;;16.87;100.00;101573.06;10396608;28;20112;-75
2022/07/21 05:04:46;;;;;;;23.38;18.73;;;;;;;17.22;100.00;101575.97;10371995;28;20061;-75
2022/07/21 05:09:47;;;;;;;24.27;19.13;;;;;;;17.28;100.00;101588.50;10373014;28;20081;-75
2022/07/21 05:14:47;;;;;;;25.65;19.20;;;;;;;17.22;100.00;101577.72;10359804;28;20033;-75
2022/07/21 05:19:50;;;;;;;21.38;17.65;;;;;;;17.12;100.00;101585.38;10364715;28;20120;-75
2022/07/21 05:24:50;;;;;;;;;;;;;;;17.20;100.00;101580.31;10390101;28;20136;-75
2022/07/21 05:29:50;;;;;;;24.83;18.17;;;;;;;17.16;100.00;101591.63;10381529;28;19925;-76
2022/07/21 05:34:51;;;;;;;20.27;17.50;;;;;;;17.19;100.00;101593.50;10380234;28;20129;-74
2022/07/21 05:39:52;;;;;;;23.38;18.30;;;;;;;17.31;100.00;101585.97;10382141;28;20045;-77
2022/07/21 05:44:52;;;;;;;20.80;16.67;;;;;;;17.44;100.00;101579.28;10389771;28;20067;-76
2022/07/21 05:49:53;;;;;;;19.88;15.75;;;;;;;17.65;100.00;101571.09;10396085;28;20120;-76
2022/07/21 05:54:53;;;;;;;24.02;16.88;;;;;;;17.86;100.00;101562.88;10378678;28;20065;-77
2022/07/21 05:59:54;;;;;;;22.58;16.63;;;;;;;18.09;99.40;101561.78;10364645;28;20374;-77
2022/07/21 06:04:54;;;;;;;27.10;17.88;;;;;;;18.16;96.85;101569.94;10358230;28;20402;-76
2022/07/21 06:09:55;;;;;;;26.17;17.40;;;;;;;18.26;97.00;101563.16;10333618;28;20073;-77
2022/07/21 06:14:55;;;;;;;19.85;12.75;;;;;;;18.40;95.30;101568.78;10334374;28;20508;-76
2022/07/21 06:19:56;;;;;;;18.15;13.77;;;;;;;18.53;95.35;101577.06;10358774;28;20053;-77
2022/07/21 06:24:56;;;;;;;17.40;12.00;;;;;;;18.70;91.03;101574.88;10359619;28;20042;-77
2022/07/21 06:29:58;;;;;;;17.70;13.23;;;;;;;18.70;91.59;101577.53;10370320;28;20492;-77
2022/07/21 06:34:59;;;;;;;18.83;12.55;;;;;;;18.70;89.14;101578.41;10386511;28;20440;-78
2022/07/21 06:39:59;;;;;;;18.10;12.23;;;;;;;18.85;89.97;101591.16;10383264;28;20130;-79
2022/07/21 06:45:00;;;;;;;16.55;12.57;;;;;;;19.01;88.62;101580.97;10373818;28;20397;-79
2022/07/21 06:50:02;;;;;;;30.55;21.27;;;;;;;19.24;85.80;101588.56;10392258;28;20124;-79
2022/07/21 06:55:04;;;;;;;17.40;13.18;;;;;;;19.51;86.29;101597.16;10358804;28;20521;-80
2022/07/21 07:00:06;;;;;;;21.05;14.85;;;;;;;19.29;87.17;101589.59;10341882;28;20443;-80
2022/07/21 07:05:07;;;;;;;19.63;15.43;;;;;;;19.07;86.82;101599.69;10362699;28;20053;-82
2022/07/21 07:10:08;;;;;;;15.75;13.30;;;;;;;18.89;86.43;101606.28;10405975;28;20041;-80
2022/07/21 07:15:09;;;;;;;18.88;13.57;;;;;;;19.01;86.39;101600.41;10372073;28;20041;-80
2022/07/21 07:20:10;;;;;;;18.38;13.52;;;;;;;18.98;86.36;101610.94;10388584;28;20497;-80
2022/07/21 07:25:10;;;;;;;18.45;11.55;;;;;;;19.29;84.62;101602.84;10389312;28;20082;-80
2022/07/21 07:30:11;;;;;;;23.10;12.13;;;;;;;19.55;85.00;101607.84;10405768;28;20147;-80
2022/07/21 07:35:12;;;;;;;18.20;12.02;;;;;;;19.59;82.42;101602.63;10405793;28;20099;-80
2022/07/21 07:40:18;;;;;;;14.35;11.18;;;;;;;19.72;81.89;101606.47;10402126;28;20120;-80
2022/07/21 07:45:18;;;;;;;16.63;11.18;;;;;;;19.58;82.88;101597.31;10376213;28;20501;-80
2022/07/21 07:50:19;;;;;;;14.90;11.85;;;;;;;19.58;83.90;101592.00;10347187;28;20073;-80
2022/07/21 07:55:19;;;;;;;20.25;13.90;;;;;;;19.79;83.35;101594.19;10379227;28;20164;-79
2022/07/21 08:00:20;;;;;;;19.73;13.40;;;;;;;20.07;80.99;101584.19;10367742;28;20061;-80
2022/07/21 08:05:20;;;;;;;14.70;11.63;;;;;;;20.43;78.69;101595.50;10383869;28;20052;-80
2022/07/21 08:10:21;;;;;;;15.15;10.77;;;;;;;20.28;78.84;101590.78;10376943;28;20069;-80
2022/07/21 08:15:22;;;;;;;15.48;12.50;;;;;;;19.87;80.12;101589.06;10386938;28;20033;-79
2022/07/21 08:20:22;;;;;;;15.38;12.52;;;;;;;19.71;81.80;101590.50;10369306;28;20061;-81
2022/07/21 08:25:23;;;;;;;19.02;13.27;;;;;;;19.52;80.35;101598.97;10386026;28;20041;-80
2022/07/21 08:30:23;;;;;;;22.45;13.63;;;;;;;19.08;82.84;101602.38;10369590;28;20038;-80
2022/07/21 08:35:24;;;;;;;24.50;16.02;;;;;;;18.84;85.35;101614.97;10346505;28;20172;-78
2022/07/21 08:40:25;;;;;;;17.30;14.55;;;;;;;18.60;86.95;101618.78;10345257;28;20172;-78
2022/07/21 08:45:27;;;;;;;20.90;14.63;;;;;;;18.69;86.58;101611.06;10373722;28;20513;-77
2022/07/21 08:50:30;;;;;;;20.20;15.32;;;;;;;18.79;86.94;101620.19;10385186;28;20423;-79
2022/07/21 08:55:34;;;;;;;24.17;16.05;;;;;;;18.96;88.71;101620.59;10371492;28;20482;-79
2022/07/21 09:00:36;;;;;;;20.60;14.35;;;;;;;18.93;88.72;101624.09;10345135;28;20041;-79
2022/07/21 09:05:37;;;;;;;21.77;13.68;;;;;;;18.55;91.39;101631.94;10334767;28;20739;-79
2022/07/21 09:10:37;;;;;;;40.45;29.77;;;;;;;18.41;93.89;101628.00;10384205;28;20103;-80
2022/07/21 09:15:39;;;;;;;24.23;16.88;;;;;;;18.06;96.46;101631.44;10370751;28;20053;-78
2022/07/21 09:20:49;;;;;;;26.60;16.85;;;;;;;17.94;98.60;101623.09;10356717;28;20068;-81
2022/07/21 09:25:51;;;;;;;23.92;16.13;;;;;;;17.84;98.87;101625.47;10369023;28;20129;-80
2022/07/21 09:31:06;;;;;;;;;;;;;;;17.78;100.00;101627.94;10367020;28;20037;-80
2022/07/21 09:36:11;;;;;;;22.52;18.83;;;;;;;17.70;100.00;101624.16;10401395;28;19939;-79
2022/07/21 09:41:16;;;;;;;27.83;17.85;;;;;;;17.68;100.00;101629.44;10383610;28;20436;-79
2022/07/21 09:46:30;;;;;;;25.48;15.77;;;;;;;17.60;100.00;101633.59;10383612;28;20084;-81
2022/07/21 09:51:32;;;;;;;21.08;14.27;;;;;;;17.69;100.00;101631.22;10369389;28;20037;-78
2022/07/21 09:56:34;;;;;;;18.65;13.70;;;;;;;17.63;100.00;101636.34;10382763;28;20063;-78
2022/07/21 10:01:36;;;;;;;;;;;;;;;17.63;100.00;101646.00;10384503;28;20072;-79
2022/07/21 10:06:38;;;;;;;19.33;12.90;;;;;;;17.61;100.00;101640.69;10383755;28;19917;-78
2022/07/21 10:11:39;;;;;;;;;;;;;;;17.59;100.00;101645.03;10383331;28;20029;-77
2022/07/21 10:16:39;;;;;;;18.95;12.27;;;;;;;17.39;100.00;101644.38;10376001;28;19922;-78
2022/07/21 10:21:48;;;;;;;20.45;14.73;;;;;;;17.40;100.00;101641.81;10328827;28;20193;-77
2022/07/21 10:27:05;;;;;;;17.73;14.15;;;;;;;17.47;100.00;101658.75;10379391;28;20485;-77
2022/07/21 10:32:10;;;;;;;21.92;14.93;;;;;;;17.67;100.00;101656.75;10372364;28;20038;-76
2022/07/21 10:37:11;;;;;;;19.58;14.70;;;;;;;17.88;100.00;101655.63;10377823;28;20129;-76
2022/07/21 10:42:15;;;;;;;24.30;14.38;;;;;;;17.93;100.00;101663.69;10357093;28;20042;-76
2022/07/21 10:47:20;;;;;;;18.95;13.98;;;;;;;17.88;100.00;101652.97;10358758;28;20045;-77
2022/07/21 10:52:38;;;;;;;14.95;11.32;;;;;;;17.85;100.00;101666.13;10371379;28;20497;-77
2022/07/21 10:57:46;;;;;;;14.68;11.45;;;;;;;17.88;100.00;101666.22;10399373;28;20034;-77
2022/07/21 11:02:49;;;;;;;11.35;8.30;;;;;;;17.73;100.00;101672.81;10385212;28;20068;-76
2022/07/21 11:08:12;;;;;;;13.10;9.20;;;;;;;17.62;100.00;101679.53;10359454;28;20117;-76
2022/07/21 11:13:13;;;;;;;10.73;8.15;;;;;;;17.60;100.00;101676.81;10360130;28;20148;-77
2022/07/21 11:18:21;;;;;;;10.98;7.65;;;;;;;17.47;100.00;101682.56;10364302;28;20050;-77
2022/07/21 11:23:21;;;;;;;10.88;7.85;;;;;;;17.26;100.00;101686.31;10369211;28;20061;-76
2022/07/21 11:28:22;;;;;;;11.48;9.02;;;;;;;17.07;100.00;101684.81;10367481;28;20125;-77
2022/07/21 11:33:22;;;;;;;13.05;8.85;;;;;;;17.04;100.00;101684.72;10380758;28;20120;-75
2022/07/21 11:38:23;;;;;;;15.23;10.90;;;;;;;16.92;100.00;101689.53;10382019;28;20515;-76
2022/07/21 11:43:40;;;;;;;13.45;11.18;;;;;;;16.75;100.00;101697.78;10386283;28;20053;-75
2022/07/21 11:48:40;;;;;;;17.08;14.75;;;;;;;16.69;100.00;101693.16;10403019;28;20044;-77
2022/07/21 11:53:44;;;;;;;22.88;17.65;;;;;;;16.87;100.00;101698.22;10371798;28;20040;-77
2022/07/21 11:58:45;;;;;;;22.52;17.98;;;;;;;16.92;100.00;101702.75;10386560;28;20042;-79
2022/07/21 12:03:49;;;;;;;30.98;21.25;;;;;;;16.86;100.00;101701.72;10387257;28;20465;-78
2022/07/21 12:08:50;;;;;;;22.00;17.10;;;;;;;16.90;100.00;101705.34;10370338;28;20049;-78
2022/07/21 12:13:54;;;;;;;24.98;20.67;;;;;;;16.78;100.00;101697.91;10361831;28;20093;-77
2022/07/21 12:19:11;;;;;;;29.92;21.35;;;;;;;16.83;100.00;101703.31;10355255;28;20426;-77
2022/07/21 12:24:12;;;;;;;23.10;18.63;;;;;;;17.03;100.00;101693.50;10337014;28;20489;-77
2022/07/21 12:29:33;;;;;;;49.58;33.40;;;;;;;17.38;100.00;101704.34;10346888;28;20049;-78
2022/07/21 12:34:47;;;;;;;23.95;18.83;;;;;;;17.36;100.00;101705.13;10369508;28;20029;-77
2022/07/21 12:40:07;;;;;;;22.38;18.73;;;;;;;17.32;100.00;101720.03;10351843;28;20449;-77
2022/07/21 12:45:16;;;;;;;19.90;14.52;;;;;;;16.99;100.00;101715.38;10371008;28;20042;-76
2022/07/21 12:50:17;;;;;;;25.88;16.17;;;;;;;16.72;100.00;101722.34;10351506;28;20132;-77
2022/07/21 12:55:18;;;;;;;17.63;14.30;;;;;;;16.66;100.00;101726.53;10372581;28;20434;-77
2022/07/21 13:00:19;;;;;;;14.75;11.35;;;;;;;16.61;100.00;101725.47;10380363;28;20124;-77
2022/07/21 13:05:20;;;;;;;15.90;12.13;;;;;;;16.63;100.00;101721.13;10373099;28;20461;-78
2022/07/21 13:10:20;;;;;;;15.13;11.35;;;;;;;16.66;100.00;101732.69;10335943;28;20049;-78
2022/07/21 13:15:21;;;;;;;15.32;11.30;;;;;;;16.79;100.00;101728.78;10345673;28;20505;-77
2022/07/21 13:20:21;;;;;;;14.75;10.65;;;;;;;17.05;100.00;101720.88;10373569;28;20164;-77
2022/07/21 13:25:22;;;;;;;13.13;10.70;;;;;;;17.67;100.00;101730.88;10354657;28;20165;-76
2022/07/21 13:30:22;;;;;;;12.05;9.70;;;;;;;17.71;100.00;101722.19;10326466;28;20049;-77
2022/07/21 13:35:23;;;;;;;16.40;12.30;;;;;;;17.61;100.00;101726.25;10369211;28;20508;-77
2022/07/21 13:40:24;;;;;;;12.75;10.40;;;;;;;17.42;100.00;101729.16;10365304;28;20048;-77
2022/07/21 13:45:25;;;;;;;12.77;11.27;;;;;;;17.26;100.00;101735.69;10350282;28;20048;-77
2022/07/21 13:50:25;;;;;;;14.90;10.10;;;;;;;17.37;100.00;101739.59;10400533;28;20038;-76
2022/07/21 13:55:26;;;;;;;19.80;11.48;;;;;;;17.25;100.00;101737.44;10400154;28;20470;-77
2022/07/21 14:00:27;;;;;;;14.63;13.15;;;;;;;17.30;100.00;101730.53;10383850;28;20535;-77
2022/07/21 14:05:27;;;;;;;14.82;12.38;;;;;;;17.48;100.00;101739.06;10372491;28;20041;-78
2022/07/21 14:10:28;;;;;;;12.80;11.43;;;;;;;17.54;100.00;101736.63;10341945;28;20530;-76
2022/07/21 14:15:28;;;;;;;13.68;10.45;;;;;;;17.75;100.00;101744.34;10329585;28;20087;-75
2022/07/21 14:20:29;;;;;;;10.65;8.18;;;;;;;17.96;100.00;101746.78;10368543;28;20061;-75
2022/07/21 14:25:29;;;;;;;13.02;9.55;;;;;;;17.99;100.00;101745.97;10370654;28;20477;-76
2022/07/21 14:30:30;;;;;;;8.65;7.07;;;;;;;17.81;100.00;101751.59;10407789;28;20464;-76
2022/07/21 14:35:30;;;;;;;11.10;7.38;;;;;;;17.83;99.80;101765.78;10390606;28;20033;-76
2022/07/21 14:40:31;;;;;;;7.50;6.65;;;;;;;17.83;99.75;101760.50;10373679;28;20104;-76
2022/07/21 14:45:31;;;;;;;8.70;6.65;;;;;;;18.04;98.99;101755.91;10373659;28;20135;-77
2022/07/21 14:50:32;;;;;;;7.47;6.07;;;;;;;17.91;98.61;101758.97;10407236;28;20057;-77
2022/07/21 14:55:32;;;;;;;9.25;7.13;;;;;;;17.84;99.25;101755.22;10389368;28;20057;-76
2022/07/21 15:00:33;;;;;;;13.18;8.65;;;;;;;17.78;99.65;101762.09;10361754;28;20116;-76
2022/07/21 15:05:34;;;;;;;13.23;7.10;;;;;;;17.69;99.32;101755.66;10373291;28;20049;-78
2022/07/21 15:10:34;;;;;;;8.38;7.30;;;;;;;17.51;99.75;101765.63;10375669;28;20042;-76
2022/07/21 15:15:37;;;;;;;10.70;7.85;;;;;;;17.37;100.00;101766.06;10351310;28;20385;-77
2022/07/21 15:20:38;;;;;;;13.75;9.13;;;;;;;17.24;100.00;101771.78;10368397;28;20049;-77
2022/07/21 15:25:39;;;;;;;13.18;8.07;;;;;;;17.05;100.00;101770.22;10395282;28;20049;-76
2022/07/21 15:30:39;;;;;;;12.40;9.15;;;;;;;16.98;100.00;101766.47;10363695;28;20042;-77
2022/07/21 15:35:40;;;;;;;10.88;8.85;;;;;;;17.08;100.00;101767.69;10347236;28;20057;-77
2022/07/21 15:40:41;;;;;;;15.70;9.85;;;;;;;17.07;100.00;101773.81;10342294;28;20525;-77
2022/07/21 15:45:42;;;;;;;17.27;12.63;;;;;;;17.09;100.00;101769.47;10356084;28;20025;-77
2022/07/21 15:50:42;;;;;;;13.18;9.45;;;;;;;16.98;100.00;101767.34;10373799;28;20505;-77
2022/07/21 15:55:43;;;;;;;24.05;18.17;;;;;;;16.94;100.00;101772.47;10334466;28;20069;-77
2022/07/21 16:00:43;;;;;;;27.25;12.52;;;;;;;16.87;100.00;101776.63;10380450;28;20501;-78
2022/07/21 16:05:44;;;;;;;17.48;11.15;;;;;;;16.89;100.00;101772.28;10371030;28;20041;-78
2022/07/21 16:10:44;;;;;;;16.20;10.38;;;;;;;16.79;100.00;101781.63;10385456;28;20083;-77
2022/07/21 16:15:45;;;;;;;15.32;11.23;;;;;;;16.77;100.00;101775.41;10403520;28;20473;-78
2022/07/21 16:20:46;;;;;;;24.05;13.75;;;;;;;16.78;100.00;101773.63;10382518;28;20045;-80
2022/07/21 16:25:46;;;;;;;13.73;9.52;;;;;;;16.87;100.00;101772.25;10366164;28;20062;-78
2022/07/21 16:30:47;;;;;;;19.83;9.07;;;;;;;16.84;100.00;101777.41;10365474;28;20041;-80
2022/07/21 16:35:47;;;;;;;24.40;15.48;;;;;;;16.85;100.00;101779.22;10369029;28;20053;-77
2022/07/21 16:40:48;;;;;;;18.40;10.35;;;;;;;16.87;100.00;101768.69;10349813;28;20037;-79
2022/07/21 16:45:48;;;;;;;12.55;9.25;;;;;;;16.95;100.00;101776.91;10363673;28;20034;-79
2022/07/21 16:50:49;;;;;;;11.68;7.70;;;;;;;16.97;99.88;101778.78;10367090;28;20029;-77
2022/07/21 16:55:49;;;;;;;9.48;7.55;;;;;;;16.86;99.46;101795.97;10403555;28;20030;-77
2022/07/21 17:00:50;;;;;;;12.05;7.88;;;;;;;16.77;100.00;101792.97;10343924;28;20072;-77
2022/07/21 17:05:50;;;;;;;11.35;7.28;;;;;;;16.64;100.00;101800.44;10361207;28;20130;-75
2022/07/21 17:10:51;;;;;;;12.65;7.45;;;;;;;16.53;100.00;101808.00;10362646;28;20468;-76
2022/07/21 17:15:52;;;;;;;13.75;8.02;;;;;;;16.43;100.00;101805.84;10344030;28;20065;-77
2022/07/21 17:20:52;;;;;;;16.52;8.88;;;;;;;16.27;100.00;101813.16;10360272;28;20480;-77
2022/07/21 17:25:53;;;;;;;22.00;11.98;;;;;;;16.15;100.00;101821.50;10359893;28;20061;-78
2022/07/21 17:30:53;;;;;;;16.90;12.00;;;;;;;16.04;100.00;101822.78;10343726;28;20030;-79
2022/07/21 17:35:54;;;;;;;19.67;12.75;;;;;;;15.95;100.00;101831.25;10360136;28;20088;-79
2022/07/21 17:40:59;;;;;;;20.20;12.43;;;;;;;15.95;100.00;101831.25;10342872;28;20052;-79
2022/07/21 17:45:59;;;;;;;20.02;11.50;;;;;;;15.90;100.00;101830.19;10327848;28;20041;-79
2022/07/21 17:51:00;;;;;;;17.50;12.80;;;;;;;15.83;100.00;101838.63;10343583;28;20410;-79
2022/07/21 17:56:00;;;;;;;19.58;13.27;;;;;;;15.77;100.00;101835.75;10358959;28;20033;-79
2022/07/21 18:01:03;;;;;;;18.48;11.82;;;;;;;15.69;100.00;101841.59;10367260;28;20119;-78
2022/07/21 18:06:04;;;;;;;16.65;11.82;;;;;;;15.67;100.00;101840.63;10366848;28;20068;-79
2022/07/21 18:11:04;;;;;;;19.80;12.02;;;;;;;15.69;100.00;101845.97;10381952;28;20509;-79
2022/07/21 18:16:06;;;;;;;19.45;11.60;;;;;;;15.67;100.00;101850.28;10365993;28;20120;-79
2022/07/21 18:21:06;;;;;;;21.67;13.00;;;;;;;15.66;100.00;101844.13;10366523;28;20072;-80
2022/07/21 18:26:08;;;;;;;20.02;13.50;;;;;;;15.65;100.00;101858.16;10366497;28;20125;-79
2022/07/21 18:31:09;;;;;;;26.13;15.47;;;;;;;15.60;100.00;101864.03;10400152;28;20500;-79
2022/07/21 18:36:09;;;;;;;29.45;19.13;;;;;;;15.59;100.00;101862.25;10400272;28;20049;-79
2022/07/21 18:41:10;;;;;;;29.63;21.35;;;;;;;15.55;100.00;101858.59;10382418;28;20048;-79
2022/07/21 18:46:11;;;;;;;38.92;24.30;;;;;;;15.49;100.00;101863.59;10365641;28;20044;-79
2022/07/21 18:51:12;;;;;;;30.38;22.15;;;;;;;15.47;100.00;101875.81;10365358;28;20041;-79
2022/07/21 18:56:12;;;;;;;32.90;24.75;;;;;;;15.41;100.00;101877.34;10381530;28;20201;-79
2022/07/21 19:01:13;;;;;;;34.47;24.08;;;;;;;15.39;100.00;101879.03;10384897;28;20095;-80
2022/07/21 19:06:13;;;;;;;30.83;23.25;;;;;;;15.37;100.00;101875.41;10389691;28;20073;-79
2022/07/21 19:11:14;;;;;;;35.88;25.80;;;;;;;15.33;100.00;101877.84;10406112;28;20180;-79
2022/07/21 19:16:14;;;;;;;35.65;24.10;;;;;;;15.31;100.00;101893.59;10373409;28;20124;-79
2022/07/21 19:21:15;;;;;;;39.50;25.00;;;;;;;15.29;100.00;101897.00;10371872;28;20061;-78
2022/07/21 19:26:15;;;;;;;37.50;25.33;;;;;;;15.25;100.00;101890.69;10405410;28;20033;-78
2022/07/21 19:31:16;;;;;;;38.72;23.10;;;;;;;15.24;100.00;101894.16;10388124;28;20103;-78
2022/07/21 19:36:17;;;;;;;35.38;23.85;;;;;;;15.22;100.00;101904.63;10406447;28;20091;-78
2022/07/21 19:41:17;;;;;;;37.20;22.35;;;;;;;15.17;100.00;101905.28;10404648;28;20363;-78
2022/07/21 19:46:18;;;;;;;46.20;24.73;;;;;;;15.20;100.00;101914.19;10405411;28;20033;-77
2022/07/21 19:51:18;;;;;;;37.70;22.48;;;;;;;15.17;100.00;101924.63;10388615;28;20041;-78
2022/07/21 19:56:19;;;;;;;41.13;22.88;;;;;;;15.17;100.00;101934.28;10387246;28;20054;-78
2022/07/21 20:01:19;;;;;;;40.22;21.67;;;;;;;15.14;100.00;101940.28;10387273;28;20045;-77
2022/07/21 20:06:20;;;;;;;37.13;21.95;;;;;;;15.15;100.00;101934.19;10405157;28;20044;-78
2022/07/21 20:11:20;;;;;;;36.40;21.45;;;;;;;15.17;100.00;101943.06;10385194;28;20119;-78
2022/07/21 20:16:21;;;;;;;36.78;21.52;;;;;;;15.15;100.00;101944.72;10405032;28;20033;-78
2022/07/21 20:21:22;;;;;;;37.40;18.85;;;;;;;15.12;100.00;101944.59;10369861;28;20029;-78
2022/07/21 20:26:23;;;;;;;28.98;17.25;;;;;;;15.10;100.00;101943.63;10386283;28;20060;-79
2022/07/21 20:31:23;;;;;;;30.25;15.35;;;;;;;15.09;100.00;101944.44;10348891;28;20095;-78
2022/07/21 20:36:24;;;;;;;27.65;15.10;;;;;;;15.05;100.00;101946.06;10344769;28;20087;-77
2022/07/21 20:41:24;;;;;;;24.33;12.85;;;;;;;14.96;100.00;101951.78;10345696;28;20089;-79
2022/07/21 20:46:25;;;;;;;29.95;11.57;;;;;;;14.96;100.00;101956.19;10362144;28;20037;-78
2022/07/21 20:51:25;;;;;;;21.85;10.63;;;;;;;14.94;100.00;101955.19;10329286;28;20433;-77
2022/07/21 20:56:26;;;;;;;22.65;11.18;;;;;;;14.90;100.00;101954.13;10328200;28;20156;-78
2022/07/21 21:01:26;;;;;;;18.92;10.48;;;;;;;14.92;100.00;101955.09;10362582;28;20375;-78
2022/07/21 21:06:28;;;;;;;26.30;12.52;;;;;;;14.87;100.00;101954.00;10328225;28;20490;-78
2022/07/21 21:11:29;;;;;;;21.88;10.70;;;;;;;14.86;100.00;101956.56;10361421;28;20099;-78
2022/07/21 21:16:30;;;;;;;19.20;11.05;;;;;;;14.78;100.00;101953.56;10360424;28;20045;-79
2022/07/21 21:21:30;;;;;;;15.88;10.65;;;;;;;14.75;100.00;101953.41;10381731;28;20033;-78
2022/07/21 21:26:31;;;;;;;25.88;11.55;;;;;;;14.74;100.00;101956.88;10399238;28;20115;-77
2022/07/21 21:31:31;;;;;;;18.60;9.32;;;;;;;14.67;100.00;101958.28;10390088;28;20053;-77
2022/07/21 21:36:32;;;;;;;17.80;9.35;;;;;;;14.61;100.00;101966.78;10385064;28;20136;-77
2022/07/21 21:41:33;;;;;;;18.40;10.73;;;;;;;14.59;100.00;101967.56;10398715;28;20549;-77
2022/07/21 21:46:33;;;;;;;22.02;11.13;;;;;;;14.57;100.00;101979.75;10361841;28;20088;-77
2022/07/21 21:51:34;;;;;;;22.67;11.45;;;;;;;14.50;100.00;101970.63;10371342;28;20064;-77
2022/07/21 21:56:34;;;;;;;24.02;11.75;;;;;;;14.48;100.00;101980.19;10382456;28;20043;-77
2022/07/21 22:01:35;;;;;;;21.73;12.43;;;;;;;14.44;100.00;101972.94;10368954;28;20030;-77
2022/07/21 22:06:35;;;;;;;30.60;14.02;;;;;;;14.39;100.00;101971.00;10359683;28;20412;-77
2022/07/21 22:11:36;;;;;;;25.13;13.18;;;;;;;14.37;100.00;101971.75;10332203;28;20522;-77
2022/07/21 22:16:36;;;;;;;20.98;13.65;;;;;;;14.35;100.00;101976.94;10360806;28;20091;-77
2022/07/21 22:21:37;;;;;;;23.98;14.10;;;;;;;14.33;100.00;101973.31;10330799;28;20064;-77
2022/07/21 22:26:38;;;;;;;25.65;11.25;;;;;;;14.33;100.00;101973.31;10400367;28;20036;-77